Time;durP1;ratioP1;P1;durP2;ratioP2;P2;SDS_P1;SDS_P2;PMS_P1;PMS_P2;Temp;Humidity;BMP_temperature;BMP_pressure;BME280_temperature;BME280_humidity;BME280_pressure;Samples;Min_cycle;Max_cycle;Signal;HPM_P1;HPM_P2
2022/04/17 00:00:10;;;;;;;7.70;5.55;;;5.00;96.20;;;;;;5083602;28;20036;-72
2022/04/17 00:02:37;;;;;;;9.52;5.90;;;5.00;96.30;;;;;;5066664;28;20055;-72
2022/04/17 00:05:04;;;;;;;8.35;5.88;;;5.00;96.20;;;;;;5064379;28;20092;-72
2022/04/17 00:07:30;;;;;;;8.20;5.80;;;5.00;96.30;;;;;;5097777;28;20036;-72
2022/04/17 00:09:57;;;;;;;11.38;5.72;;;5.00;96.50;;;;;;5057990;28;20036;-72
2022/04/17 00:12:23;;;;;;;9.55;5.78;;;5.00;96.30;;;;;;5063088;28;20045;-72
2022/04/17 00:14:50;;;;;;;7.90;5.95;;;5.00;96.40;;;;;;5062130;28;20060;-72
2022/04/17 00:17:16;;;;;;;10.68;6.57;;;5.00;96.40;;;;;;5063866;28;20040;-72
2022/04/17 00:19:41;;;;;;;8.05;6.20;;;5.00;96.40;;;;;;5061146;28;20044;-72
2022/04/17 00:22:07;;;;;;;8.18;6.25;;;4.90;96.50;;;;;;5060957;28;20777;-72
2022/04/17 00:24:33;;;;;;;10.30;5.72;;;4.90;96.50;;;;;;5062479;28;20082;-72
2022/04/17 00:27:00;;;;;;;8.32;5.90;;;5.00;96.50;;;;;;5064103;28;20047;-72
2022/04/17 00:29:29;;;;;;;8.65;5.80;;;4.90;96.70;;;;;;5069240;28;20114;-72
2022/04/17 00:31:58;;;;;;;9.52;6.72;;;4.80;96.70;;;;;;5064041;28;20106;-72
2022/04/17 00:34:25;;;;;;;10.20;6.45;;;4.80;96.70;;;;;;5066018;28;20024;-72
2022/04/17 00:36:50;;;;;;;10.57;6.57;;;4.80;96.90;;;;;;5082104;28;20040;-72
2022/04/17 00:39:16;;;;;;;10.38;6.70;;;4.70;97.10;;;;;;5082503;28;20455;-72
2022/04/17 00:41:42;;;;;;;10.07;6.15;;;4.70;97.20;;;;;;5067535;28;20036;-72
2022/04/17 00:44:13;;;;;;;9.30;6.63;;;4.70;97.30;;;;;;5086326;28;20501;-72
2022/04/17 00:46:40;;;;;;;10.07;6.75;;;4.60;97.30;;;;;;5067440;28;20033;-72
2022/04/17 00:49:09;;;;;;;9.32;6.85;;;4.60;97.30;;;;;;5084535;28;20572;-72
2022/04/17 00:51:36;;;;;;;9.85;7.68;;;4.60;97.30;;;;;;5066749;28;20438;-72
2022/04/17 00:54:07;;;;;;;11.07;7.55;;;4.50;97.40;;;;;;5069802;28;20497;-72
2022/04/17 00:56:34;;;;;;;12.75;7.25;;;4.80;97.90;;;;;;5068193;28;20036;-72
2022/04/17 00:59:02;;;;;;;11.50;6.72;;;4.50;97.90;;;;;;5084307;28;20454;-73
2022/04/17 01:01:32;;;;;;;11.50;7.13;;;4.50;97.90;;;;;;5084953;28;20071;-72
2022/04/17 01:03:58;;;;;;;16.90;7.43;;;4.50;97.80;;;;;;5070175;28;20040;-72
2022/04/17 01:06:28;;;;;;;11.07;7.65;;;4.50;97.80;;;;;;5085834;28;20062;-72
2022/04/17 01:08:54;;;;;;;11.43;7.13;;;4.40;97.90;;;;;;5069143;28;20032;-72
2022/04/17 01:11:19;;;;;;;12.98;8.00;;;4.40;98.20;;;;;;5078772;28;20119;-72
2022/04/17 01:13:45;;;;;;;10.52;6.95;;;4.40;98.20;;;;;;5067252;28;20119;-72
2022/04/17 01:16:16;;;;;;;11.20;8.10;;;4.40;98.40;;;;;;5063779;28;20054;-72
2022/04/17 01:19:03;;;;;;;11.55;7.50;;;4.50;98.40;;;;;;5065643;28;20290;-72
2022/04/17 01:21:30;;;;;;;10.68;7.45;;;4.40;98.90;;;;;;5085947;28;20464;-72
2022/04/17 01:26:56;;;;;;;13.20;7.93;;;4.50;98.80;;;;;;5084473;28;20036;-72
2022/04/17 01:29:24;;;;;;;14.25;7.53;;;4.50;98.60;;;;;;5086310;28;20538;-72
2022/04/17 01:31:50;;;;;;;13.27;7.40;;;4.50;98.70;;;;;;5080892;28;20043;-72
2022/04/17 01:34:20;;;;;;;9.63;6.95;;;4.50;98.50;;;;;;5067700;28;20032;-72
2022/04/17 01:36:47;;;;;;;10.77;7.55;;;4.50;98.60;;;;;;5066794;28;20036;-72
2022/04/17 01:39:13;;;;;;;11.27;7.97;;;4.50;98.90;;;;;;5086168;28;20466;-72
2022/04/17 01:41:39;;;;;;;11.85;7.38;;;4.40;98.90;;;;;;5067692;28;20078;-72
2022/04/17 01:44:06;;;;;;;9.68;7.32;;;4.40;98.80;;;;;;5083630;28;20494;-72
2022/04/17 01:46:33;;;;;;;9.02;7.05;;;4.50;98.90;;;;;;5085564;28;20032;-72
2022/04/17 01:48:59;;;;;;;12.02;7.63;;;4.40;99.00;;;;;;5085945;28;20028;-72
2022/04/17 01:51:25;;;;;;;9.90;7.35;;;4.40;99.10;;;;;;5051264;28;20071;-72
2022/04/17 01:53:50;;;;;;;12.93;7.45;;;4.40;99.10;;;;;;5085245;28;20082;-72
2022/04/17 01:56:16;;;;;;;11.80;7.63;;;4.60;99.40;;;;;;5068417;28;20047;-72
2022/04/17 01:58:42;;;;;;;10.50;7.93;;;4.40;99.60;;;;;;5085192;28;20089;-72
2022/04/17 02:01:08;;;;;;;11.32;7.78;;;4.40;99.40;;;;;;5085563;28;20044;-72
2022/04/17 02:03:33;;;;;;;10.43;6.93;;;4.40;99.60;;;;;;5083927;28;20044;-72
2022/04/17 02:06:00;;;;;;;11.82;7.60;;;4.30;99.70;;;;;;5085025;28;20039;-72
2022/04/17 02:08:30;;;;;;;12.20;7.45;;;4.40;99.70;;;;;;5066632;28;20036;-72
2022/04/17 02:10:56;;;;;;;13.93;7.78;;;4.60;99.90;;;;;;5068054;28;20446;-72
2022/04/17 02:13:23;;;;;;;12.23;8.95;;;4.60;99.90;;;;;;5084473;28;20047;-73
2022/04/17 02:15:53;;;;;;;12.60;7.38;;;4.30;99.90;;;;;;5083139;28;20057;-72
2022/04/17 02:18:25;;;;;;;11.88;8.23;;;4.30;99.90;;;;;;5084080;28;20744;-72
2022/04/17 02:20:53;;;;;;;16.55;8.70;;;4.40;99.90;;;;;;5101203;28;20401;-72
2022/04/17 02:23:18;;;;;;;12.93;8.23;;;4.40;99.90;;;;;;5084750;28;20044;-72
2022/04/17 02:25:44;;;;;;;14.43;9.10;;;4.40;99.90;;;;;;5080334;28;20089;-72
2022/04/17 02:28:10;;;;;;;14.32;9.32;;;4.30;99.90;;;;;;5077923;28;20090;-72
2022/04/17 02:30:36;;;;;;;17.17;9.98;;;4.30;99.90;;;;;;5062621;28;20036;-72
2022/04/17 02:33:03;;;;;;;16.55;9.60;;;4.30;99.90;;;;;;5083469;28;20050;-72
2022/04/17 02:35:28;;;;;;;17.23;9.90;;;4.30;99.90;;;;;;5084467;28;20044;-72
2022/04/17 02:37:54;;;;;;;13.93;8.68;;;4.30;99.90;;;;;;5067529;28;20063;-72
2022/04/17 02:40:20;;;;;;;14.95;9.02;;;4.20;99.90;;;;;;5084495;28;20044;-72
2022/04/17 02:42:47;;;;;;;15.05;9.85;;;4.20;99.90;;;;;;5084653;28;20039;-72
2022/04/17 02:45:14;;;;;;;14.93;8.70;;;4.20;99.90;;;;;;5073265;28;20043;-72
2022/04/17 02:47:42;;;;;;;12.15;8.93;;;4.20;99.90;;;;;;5049558;28;20044;-72
2022/04/17 02:50:13;;;;;;;12.13;8.73;;;4.20;99.90;;;;;;5082507;28;20047;-72
2022/04/17 02:52:40;;;;;;;18.38;9.68;;;4.20;99.90;;;;;;5084206;28;20517;-72
2022/04/17 02:55:06;;;;;;;14.50;8.75;;;4.10;99.90;;;;;;5101844;28;20044;-72
2022/04/17 02:57:32;;;;;;;13.80;8.93;;;4.10;99.90;;;;;;5048803;28;20071;-72
2022/04/17 02:59:59;;;;;;;15.50;9.02;;;4.10;99.90;;;;;;5084012;28;20123;-72
2022/04/17 03:07:55;;;;;;;13.07;9.25;;;3.80;99.90;;;;;;5083265;28;20071;-72
2022/04/17 03:10:21;;;;;;;10.95;8.30;;;3.80;99.90;;;;;;5063791;28;20042;-72
2022/04/17 03:12:47;;;;;;;13.85;9.27;;;3.80;99.90;;;;;;5084869;28;20571;-73
2022/04/17 03:15:13;;;;;;;13.13;8.60;;;3.80;99.90;;;;;;5080620;28;20401;-72
2022/04/17 03:17:39;;;;;;;12.27;8.95;;;3.80;99.90;;;;;;5080758;28;20039;-72
2022/04/17 03:20:07;;;;;;;12.00;8.10;;;3.80;99.90;;;;;;5081627;28;20075;-72
2022/04/17 03:22:33;;;;;;;13.25;8.50;;;3.80;99.90;;;;;;5050510;28;20055;-72
2022/04/17 03:25:01;;;;;;;10.20;7.90;;;3.70;99.90;;;;;;5082259;28;20136;-72
2022/04/17 03:27:30;;;;;;;18.05;8.60;;;3.80;99.90;;;;;;5099780;28;20040;-72
2022/04/17 03:29:56;;;;;;;14.60;8.40;;;3.60;99.90;;;;;;5067658;28;20028;-72
2022/04/17 03:32:21;;;;;;;13.10;9.18;;;3.60;99.90;;;;;;5079670;28;20114;-72
2022/04/17 03:34:47;;;;;;;10.77;7.07;;;3.60;99.90;;;;;;5079631;28;20492;-72
2022/04/17 03:37:16;;;;;;;13.82;9.00;;;3.60;99.90;;;;;;5076996;28;20046;-72
2022/04/17 03:39:44;;;;;;;13.77;8.20;;;3.60;99.90;;;;;;5080316;28;20123;-73
2022/04/17 03:42:11;;;;;;;14.02;8.38;;;3.50;99.90;;;;;;5080118;28;20048;-72
2022/04/17 03:44:38;;;;;;;12.70;8.90;;;3.50;99.90;;;;;;5080536;28;20409;-72
2022/04/17 03:47:06;;;;;;;17.15;8.80;;;3.60;99.90;;;;;;5072273;28;20028;-73
2022/04/17 03:49:32;;;;;;;10.95;7.95;;;3.40;99.90;;;;;;5063219;28;20253;-73
2022/04/17 03:52:00;;;;;;;11.80;8.50;;;3.40;99.90;;;;;;5083144;28;20035;-72
2022/04/17 03:54:26;;;;;;;14.63;8.57;;;3.40;99.90;;;;;;5080123;28;20044;-73
2022/04/17 03:56:52;;;;;;;11.70;8.50;;;3.30;99.90;;;;;;5066589;28;20406;-72
2022/04/17 03:59:18;;;;;;;13.65;9.20;;;3.30;99.90;;;;;;5083922;28;20525;-72
2022/04/17 04:01:46;;;;;;;13.40;9.02;;;3.20;99.90;;;;;;5099668;28;20106;-72
2022/04/17 04:04:12;;;;;;;12.65;8.68;;;3.10;99.90;;;;;;5097334;28;20036;-72
2022/04/17 04:06:38;;;;;;;14.35;9.20;;;3.00;99.90;;;;;;5083914;28;20495;-72
2022/04/17 04:09:03;;;;;;;17.23;10.32;;;2.90;99.90;;;;;;5083523;28;20075;-72
2022/04/17 04:11:29;;;;;;;12.68;8.98;;;2.90;99.90;;;;;;5057086;28;20401;-72
2022/04/17 04:13:55;;;;;;;12.30;9.27;;;2.80;99.90;;;;;;5049620;28;20077;-72
2022/04/17 04:16:21;;;;;;;16.40;9.55;;;2.80;99.90;;;;;;5078198;28;20047;-73
2022/04/17 04:18:46;;;;;;;14.50;9.90;;;2.70;99.90;;;;;;5087445;28;20036;-72
2022/04/17 04:21:12;;;;;;;12.45;9.80;;;2.60;99.90;;;;;;5079061;28;20044;-72
2022/04/17 04:23:38;;;;;;;18.52;10.40;;;2.60;99.90;;;;;;5053304;28;20505;-72
2022/04/17 04:26:04;;;;;;;14.65;10.10;;;2.80;99.90;;;;;;5084663;28;20406;-73
2022/04/17 04:28:36;;;;;;;13.38;9.45;;;2.50;99.90;;;;;;5071626;28;20028;-73
2022/04/17 04:31:05;;;;;;;16.83;10.20;;;2.50;99.90;;;;;;5091758;28;20583;-73
2022/04/17 04:33:34;;;;;;;15.73;9.93;;;2.60;99.90;;;;;;5092350;28;20043;-73
2022/04/17 04:36:01;;;;;;;15.63;10.30;;;2.50;99.90;;;;;;5074777;28;20143;-73
2022/04/17 04:38:27;;;;;;;14.60;10.07;;;2.40;99.90;;;;;;5090083;28;20037;-73
2022/04/17 04:40:54;;;;;;;15.30;9.75;;;2.40;99.90;;;;;;5105940;27;20493;-72
2022/04/17 04:43:20;;;;;;;14.73;9.70;;;2.30;99.90;;;;;;5090321;28;20449;-73
2022/04/17 04:51:15;;;;;;;13.27;9.43;;;2.20;99.90;;;;;;5058412;28;20051;-73
2022/04/17 04:53:41;;;;;;;12.98;9.25;;;2.30;99.90;;;;;;5069490;28;20044;-72
2022/04/17 04:56:08;;;;;;;13.07;9.52;;;2.20;99.90;;;;;;5085147;28;20047;-73
2022/04/17 04:58:34;;;;;;;15.50;9.95;;;2.20;99.90;;;;;;5085310;28;20040;-72
2022/04/17 05:00:59;;;;;;;15.13;10.40;;;2.20;99.90;;;;;;5102023;28;20081;-72
2022/04/17 05:03:25;;;;;;;13.85;9.98;;;2.30;99.90;;;;;;5086320;28;20040;-73
2022/04/17 05:05:51;;;;;;;12.70;9.52;;;2.30;99.90;;;;;;5069523;28;20032;-72
2022/04/17 05:08:19;;;;;;;14.25;9.60;;;2.10;99.90;;;;;;5085792;28;20040;-72
2022/04/17 05:10:45;;;;;;;15.05;11.00;;;2.20;99.90;;;;;;5087816;28;20028;-72
2022/04/17 05:13:11;;;;;;;16.52;10.02;;;2.20;99.90;;;;;;5083355;28;20149;-72
2022/04/17 05:15:37;;;;;;;19.30;10.93;;;2.30;99.90;;;;;;5079736;28;20562;-72
2022/04/17 05:18:04;;;;;;;17.38;11.40;;;2.40;99.90;;;;;;5085451;28;20054;-72
2022/04/17 05:20:38;;;;;;;15.60;10.88;;;2.50;99.90;;;;;;5068355;28;20036;-72
2022/04/17 05:23:15;;;;;;;17.90;10.70;;;2.50;99.90;;;;;;5067167;28;20123;-72
2022/04/17 05:25:42;;;;;;;15.27;11.18;;;2.60;99.90;;;;;;5084331;28;20048;-72
2022/04/17 05:28:08;;;;;;;15.32;11.18;;;2.60;99.90;;;;;;5083683;28;20071;-72
2022/04/17 05:30:33;;;;;;;13.93;10.88;;;2.70;99.90;;;;;;5084652;28;20394;-72
2022/04/17 05:32:59;;;;;;;17.27;12.05;;;2.70;99.90;;;;;;5100664;28;20540;-73
2022/04/17 05:35:25;;;;;;;15.55;10.50;;;2.70;99.90;;;;;;5052034;28;20044;-72
2022/04/17 05:37:51;;;;;;;14.25;10.10;;;2.80;99.90;;;;;;5085760;28;20055;-72
2022/04/17 05:40:16;;;;;;;15.60;11.20;;;2.80;99.90;;;;;;5063058;28;20039;-72
2022/04/17 05:42:42;;;;;;;13.50;10.68;;;2.90;99.90;;;;;;5082248;28;20063;-72
2022/04/17 05:45:08;;;;;;;15.90;11.65;;;2.90;99.90;;;;;;5069062;28;20426;-73
2022/04/17 05:47:34;;;;;;;15.25;10.98;;;2.90;99.90;;;;;;5085878;28;20127;-72
2022/04/17 05:50:01;;;;;;;15.63;11.27;;;2.90;99.90;;;;;;5079347;28;20036;-72
2022/04/17 05:52:27;;;;;;;17.25;11.85;;;2.90;99.90;;;;;;5084515;28;20043;-73
2022/04/17 05:54:53;;;;;;;17.15;11.85;;;3.00;99.90;;;;;;5081712;28;20035;-72
2022/04/17 05:57:19;;;;;;;16.13;11.75;;;3.00;99.90;;;;;;5100630;28;20043;-73
2022/04/17 05:59:46;;;;;;;15.73;11.85;;;3.10;99.90;;;;;;5098362;28;20032;-72
2022/04/17 06:02:15;;;;;;;16.75;11.63;;;3.10;99.90;;;;;;5055755;28;20076;-73
2022/04/17 06:04:41;;;;;;;18.60;11.50;;;3.20;99.90;;;;;;5082832;28;20089;-72
2022/04/17 06:07:08;;;;;;;14.82;11.55;;;3.40;99.90;;;;;;5075764;28;20028;-72
2022/04/17 06:09:35;;;;;;;15.75;11.50;;;3.30;99.90;;;;;;5088316;28;21587;-72
2022/04/17 06:12:01;;;;;;;18.40;11.60;;;3.40;99.90;;;;;;5101148;28;20094;-72
2022/04/17 06:14:26;;;;;;;15.98;10.63;;;3.50;99.90;;;;;;5083867;28;20044;-72
2022/04/17 06:16:52;;;;;;;14.98;11.48;;;3.60;99.90;;;;;;5097210;28;20067;-73
2022/04/17 06:19:18;;;;;;;21.23;12.65;;;3.60;99.90;;;;;;5082495;28;20070;-72
2022/04/17 06:21:43;;;;;;;17.55;12.00;;;3.70;99.90;;;;;;5066476;28;20388;-73
2022/04/17 06:24:09;;;;;;;16.00;11.90;;;3.80;99.90;;;;;;5098762;28;20052;-72
2022/04/17 06:26:35;;;;;;;16.02;11.27;;;3.90;99.90;;;;;;5065998;28;20043;-72
2022/04/17 06:29:05;;;;;;;15.88;11.48;;;4.00;99.90;;;;;;5067579;28;20016;-72
2022/04/17 06:31:31;;;;;;;17.15;11.68;;;4.10;99.90;;;;;;5061206;28;20649;-72
2022/04/17 06:33:57;;;;;;;18.10;12.02;;;4.30;99.90;;;;;;5033261;28;20504;-72
2022/04/17 06:36:23;;;;;;;18.50;11.40;;;4.40;99.90;;;;;;5083395;28;20040;-73
2022/04/17 06:38:49;;;;;;;17.05;11.25;;;4.60;99.90;;;;;;5058325;28;20118;-72
2022/04/17 06:41:14;;;;;;;17.27;11.55;;;4.70;99.90;;;;;;5066289;28;20086;-72
2022/04/17 06:43:40;;;;;;;17.02;11.18;;;4.80;99.90;;;;;;5083419;28;20745;-73
2022/04/17 06:46:06;;;;;;;15.27;10.88;;;4.90;99.90;;;;;;5051160;28;20043;-73
2022/04/17 06:48:32;;;;;;;15.93;10.98;;;5.20;99.90;;;;;;5098089;28;20089;-73
2022/04/17 06:50:58;;;;;;;17.80;11.70;;;5.20;99.90;;;;;;5098938;28;20220;-73
2022/04/17 06:53:24;;;;;;;17.70;11.80;;;5.40;99.90;;;;;;5082112;28;20064;-72
2022/04/17 06:55:52;;;;;;;13.75;10.88;;;5.60;99.90;;;;;;5066012;28;20035;-72
2022/04/17 06:58:18;;;;;;;13.98;10.88;;;5.70;99.90;;;;;;5080346;28;20121;-73
2022/04/17 07:00:46;;;;;;;19.45;11.43;;;5.90;99.90;;;;;;5064794;28;20039;-72
2022/04/17 07:03:15;;;;;;;19.58;11.13;;;6.10;99.90;;;;;;5061384;28;20039;-72
2022/04/17 07:05:41;;;;;;;14.68;10.40;;;6.20;99.90;;;;;;5067214;28;20388;-72
2022/04/17 07:08:08;;;;;;;14.80;11.00;;;6.50;99.90;;;;;;5064288;28;20050;-72
2022/04/17 07:10:39;;;;;;;14.98;10.90;;;6.60;99.90;;;;;;5081409;28;20039;-72
2022/04/17 07:13:11;;;;;;;15.77;11.52;;;6.80;99.90;;;;;;5080016;28;20461;-72
2022/04/17 07:15:36;;;;;;;14.40;10.85;;;7.00;99.90;;;;;;5083852;28;20048;-73
2022/04/17 07:18:02;;;;;;;16.00;10.75;;;7.20;99.90;;;;;;5078178;28;20032;-73
2022/04/17 07:20:30;;;;;;;21.13;10.75;;;7.60;99.90;;;;;;5082837;28;20089;-73
2022/04/17 07:22:55;;;;;;;14.25;10.07;;;8.50;99.90;;;;;;5080809;28;20047;-73
2022/04/17 07:25:21;;;;;;;14.70;10.32;;;9.70;99.90;;;;;;5067912;28;20048;-73
2022/04/17 07:27:49;;;;;;;15.45;10.25;;;10.90;99.90;;;;;;5083078;28;20039;-73
2022/04/17 07:30:22;;;;;;;14.10;9.23;;;11.70;96.10;;;;;;5085468;28;20054;-73
2022/04/17 07:32:48;;;;;;;;;;;11.90;93.30;;;;;;5067027;28;20074;-73
2022/04/17 07:35:16;;;;;;;13.85;9.15;;;12.10;92.00;;;;;;5084818;28;20002;-73
2022/04/17 07:37:50;;;;;;;12.15;8.88;;;12.50;92.20;;;;;;5072305;28;20036;-73
2022/04/17 07:40:19;;;;;;;12.18;8.93;;;12.80;90.50;;;;;;5087338;28;20147;-73
2022/04/17 07:42:45;;;;;;;10.65;8.57;;;13.00;90.70;;;;;;5080191;28;20051;-73
2022/04/17 07:45:12;;;;;;;11.57;8.30;;;13.20;84.20;;;;;;5087741;28;20032;-73
2022/04/17 07:47:39;;;;;;;10.75;8.32;;;13.50;86.40;;;;;;5087493;28;20043;-73
2022/04/17 07:50:07;;;;;;;13.18;8.48;;;14.20;85.10;;;;;;5086736;28;20036;-73
2022/04/17 07:52:36;;;;;;;11.80;8.15;;;14.10;79.30;;;;;;5091103;28;20047;-73
2022/04/17 07:55:04;;;;;;;10.70;7.30;;;14.30;76.90;;;;;;5109204;28;20101;-73
2022/04/17 07:57:53;;;;;;;11.48;8.05;;;14.50;78.90;;;;;;5074506;28;20048;-73
2022/04/17 08:00:19;;;;;;;10.18;7.53;;;14.70;76.50;;;;;;5090817;28;20566;-73
2022/04/17 08:02:52;;;;;;;9.98;7.82;;;14.70;72.90;;;;;;5092854;28;20028;-73
2022/04/17 08:05:18;;;;;;;11.30;7.32;;;14.40;75.50;;;;;;5058699;28;20123;-74
2022/04/17 08:07:44;;;;;;;8.30;7.25;;;14.60;73.10;;;;;;5092732;28;20115;-74
2022/04/17 08:10:10;;;;;;;9.18;7.13;;;14.90;74.50;;;;;;5070785;28;20041;-74
2022/04/17 08:12:35;;;;;;;8.77;6.53;;;14.80;71.90;;;;;;5091359;28;20043;-74
2022/04/17 08:15:01;;;;;;;8.50;6.55;;;14.70;71.00;;;;;;5075274;28;21193;-74
2022/04/17 08:17:27;;;;;;;8.80;6.90;;;15.10;71.20;;;;;;5090523;28;20040;-74
2022/04/17 08:19:52;;;;;;;7.75;6.57;;;15.90;72.70;;;;;;5090612;28;20455;-74
2022/04/17 08:22:18;;;;;;;9.18;7.50;;;16.10;69.40;;;;;;5090386;28;20044;-74
2022/04/17 08:24:44;;;;;;;7.45;6.38;;;15.80;68.40;;;;;;5086412;28;20067;-74
2022/04/17 08:27:11;;;;;;;8.27;5.80;;;15.40;68.60;;;;;;5077262;28;20036;-74
2022/04/17 08:29:37;;;;;;;6.55;5.70;;;15.00;65.50;;;;;;5091340;28;20040;-74
2022/04/17 08:32:02;;;;;;;8.18;6.28;;;15.10;68.90;;;;;;5091743;28;20382;-74
2022/04/17 08:34:28;;;;;;;9.30;6.50;;;15.30;66.60;;;;;;5075129;28;20047;-74
2022/04/17 08:36:54;;;;;;;8.15;6.30;;;15.80;66.80;;;;;;5108779;28;20040;-75
2022/04/17 08:39:20;;;;;;;8.32;6.00;;;16.70;67.90;;;;;;5091665;28;20512;-76
2022/04/17 08:41:48;;;;;;;9.75;6.25;;;16.80;64.80;;;;;;5076532;28;20036;-75
2022/04/17 08:44:14;;;;;;;7.40;5.32;;;16.80;64.50;;;;;;5074848;28;20174;-74
2022/04/17 08:46:41;;;;;;;7.10;6.03;;;16.30;60.90;;;;;;5074839;28;20122;-75
2022/04/17 08:49:10;;;;;;;9.18;6.47;;;16.40;62.30;;;;;;5074595;28;20042;-71
2022/04/17 08:51:37;;;;;;;7.53;6.10;;;15.90;62.20;;;;;;5088204;28;20121;-73
2022/04/17 08:54:04;;;;;;;7.53;5.40;;;15.90;63.30;;;;;;5074721;28;20083;-73
2022/04/17 08:56:30;;;;;;;8.32;5.85;;;16.10;62.80;;;;;;5092594;28;20044;-73
2022/04/17 08:58:56;;;;;;;7.22;5.47;;;16.40;63.00;;;;;;5057736;28;20040;-74
2022/04/17 09:01:22;;;;;;;10.00;6.38;;;16.90;61.40;;;;;;5088009;28;20044;-73
2022/04/17 09:03:48;;;;;;;8.82;6.38;;;17.10;61.40;;;;;;5080554;28;20040;-74
2022/04/17 09:06:20;;;;;;;8.23;5.93;;;17.10;61.60;;;;;;5069608;28;20070;-73
2022/04/17 09:09:04;;;;;;;8.30;5.95;;;16.40;61.20;;;;;;5069583;28;20114;-74
2022/04/17 09:11:32;;;;;;;6.85;5.68;;;16.20;62.30;;;;;;5089397;28;20052;-73
2022/04/17 09:14:00;;;;;;;7.88;6.38;;;16.40;62.00;;;;;;5084816;28;20040;-73
2022/04/17 09:16:30;;;;;;;8.13;5.57;;;16.80;63.00;;;;;;5085251;28;20035;-73
2022/04/17 09:18:57;;;;;;;7.30;5.97;;;16.10;61.90;;;;;;5085557;28;20040;-73
2022/04/17 09:21:34;;;;;;;7.50;5.45;;;16.30;61.60;;;;;;5080553;28;20050;-73
2022/04/17 09:24:21;;;;;;;6.35;5.75;;;16.20;60.80;;;;;;5101718;28;20571;-73
2022/04/17 09:26:55;;;;;;;6.63;5.50;;;16.20;60.60;;;;;;5098520;27;20081;-73
2022/04/17 09:29:23;;;;;;;7.35;4.97;;;16.70;61.50;;;;;;5085487;28;20068;-73
2022/04/17 09:32:01;;;;;;;9.68;5.60;;;17.30;60.70;;;;;;5087673;28;20099;-74
2022/04/17 09:34:58;;;;;;;9.40;5.78;;;17.50;59.30;;;;;;5086586;28;20069;-73
2022/04/17 09:37:27;;;;;;;7.55;4.90;;;17.80;59.90;;;;;;5075428;28;20521;-73
2022/04/17 09:39:53;;;;;;;6.53;5.20;;;17.70;57.90;;;;;;5081497;28;20047;-74
2022/04/17 09:42:25;;;;;;;8.35;5.57;;;17.70;57.60;;;;;;5088494;28;20044;-73
2022/04/17 09:44:54;;;;;;;6.03;5.28;;;18.00;58.80;;;;;;5089816;28;20530;-74
2022/04/17 09:47:38;;;;;;;7.25;5.50;;;18.10;59.80;;;;;;5086561;28;20047;-72
2022/04/17 09:50:08;;;;;;;8.57;5.63;;;18.10;56.50;;;;;;5085190;28;20108;-72
2022/04/17 09:52:34;;;;;;;6.85;5.68;;;18.30;56.90;;;;;;5081273;28;20044;-71
2022/04/17 09:55:03;;;;;;;8.95;5.53;;;18.50;57.20;;;;;;5084977;28;20036;-72
2022/04/17 09:57:32;;;;;;;6.00;5.10;;;18.70;55.30;;;;;;5081066;28;20139;-72
2022/04/17 10:00:16;;;;;;;6.95;5.07;;;18.20;54.90;;;;;;5084202;28;20107;-72
2022/04/17 10:02:44;;;;;;;7.18;4.50;;;18.30;55.10;;;;;;5083249;28;20142;-72
2022/04/17 10:05:11;;;;;;;7.63;4.78;;;18.00;52.40;;;;;;5088641;28;20040;-72
2022/04/17 10:07:39;;;;;;;5.97;4.60;;;17.90;55.10;;;;;;5084675;28;20177;-72
2022/04/17 10:10:06;;;;;;;5.55;4.30;;;17.80;56.10;;;;;;5081473;28;20044;-72
2022/04/17 10:12:34;;;;;;;6.43;4.43;;;18.20;55.90;;;;;;5083938;28;20047;-71
2022/04/17 10:15:06;;;;;;;5.57;4.40;;;18.10;53.60;;;;;;5084421;28;20088;-71
2022/04/17 10:17:33;;;;;;;8.50;4.68;;;18.00;54.80;;;;;;5081466;28;20040;-72
2022/04/17 10:20:09;;;;;;;5.07;4.25;;;17.80;56.50;;;;;;5063825;28;20028;-72
2022/04/17 10:22:36;;;;;;;4.85;3.50;;;18.20;53.20;;;;;;5097467;28;20515;-71
2022/04/17 10:25:03;;;;;;;5.00;3.47;;;17.70;51.70;;;;;;5083113;28;20060;-71
2022/04/17 10:27:36;;;;;;;5.55;4.03;;;17.40;52.60;;;;;;5065478;28;20047;-72
2022/04/17 10:30:08;;;;;;;4.97;3.83;;;17.20;55.30;;;;;;5079967;28;20081;-72
2022/04/17 10:32:39;;;;;;;4.55;3.85;;;17.00;53.30;;;;;;5078664;28;20040;-72
2022/04/17 10:35:59;;;;;;;4.83;3.90;;;16.90;53.20;;;;;;5079711;28;20083;-71
2022/04/17 10:38:29;;;;;;;5.32;4.00;;;16.90;52.00;;;;;;5006465;28;20355;-72
2022/04/17 10:41:03;;;;;;;5.57;4.07;;;17.00;56.00;;;;;;5067254;28;20068;-71
2022/04/17 10:43:47;;;;;;;7.72;4.72;;;17.50;54.30;;;;;;5067061;28;21038;-71
2022/04/17 10:46:17;;;;;;;7.95;4.50;;;17.60;53.60;;;;;;5085030;28;20118;-69
2022/04/17 10:48:57;;;;;;;6.50;4.50;;;17.90;56.80;;;;;;5084513;28;20079;-70
2022/04/17 10:51:30;;;;;;;5.43;3.88;;;18.00;52.10;;;;;;5101486;28;20032;-72
2022/04/17 10:54:10;;;;;;;6.47;4.57;;;17.20;52.60;;;;;;5066699;28;20040;-72
2022/04/17 10:56:57;;;;;;;7.55;4.68;;;17.50;55.60;;;;;;5099247;28;20052;-72
2022/04/17 10:59:31;;;;;;;5.88;5.05;;;18.20;55.50;;;;;;5081300;28;20040;-72
2022/04/17 11:02:00;;;;;;;6.65;4.15;;;18.70;53.60;;;;;;5066047;28;20039;-72
2022/04/17 11:04:50;;;;;;;6.32;4.75;;;18.60;52.00;;;;;;5081120;28;20035;-72
2022/04/17 11:07:15;;;;;;;4.90;4.40;;;19.00;52.00;;;;;;5090480;28;20040;-72
2022/04/17 11:09:46;;;;;;;6.38;5.00;;;18.90;51.20;;;;;;5089198;28;20051;-72
2022/04/17 11:12:17;;;;;;;4.78;4.28;;;18.90;50.30;;;;;;5089498;28;20036;-72
2022/04/17 11:15:02;;;;;;;6.78;5.00;;;18.40;51.70;;;;;;5088118;28;20129;-72
2022/04/17 11:17:29;;;;;;;6.13;4.90;;;18.50;51.30;;;;;;5085531;28;20580;-72
2022/04/17 11:19:56;;;;;;;6.13;5.25;;;18.20;51.30;;;;;;5083325;28;20039;-72
2022/04/17 11:22:33;;;;;;;6.72;5.50;;;18.30;52.80;;;;;;5083627;28;20039;-72
2022/04/17 11:24:59;;;;;;;9.38;5.50;;;18.00;52.70;;;;;;5082307;28;20127;-72
2022/04/17 11:27:49;;;;;;;5.93;4.68;;;17.80;51.80;;;;;;5078548;28;20758;-72
2022/04/17 11:30:17;;;;;;;5.88;5.07;;;18.00;52.50;;;;;;5082824;28;20067;-73
2022/04/17 11:32:43;;;;;;;7.80;4.50;;;18.30;54.90;;;;;;5082988;28;20485;-72
2022/04/17 11:35:11;;;;;;;6.97;4.82;;;18.30;53.80;;;;;;5078676;28;20039;-72
2022/04/17 11:37:38;;;;;;;6.00;4.88;;;18.20;52.40;;;;;;5071137;28;20039;-72
2022/04/17 11:40:09;;;;;;;8.48;4.95;;;18.50;52.60;;;;;;5088074;28;20050;-73
2022/04/17 11:42:44;;;;;;;7.03;4.53;;;18.40;53.60;;;;;;5088396;28;20044;-73
2022/04/17 11:45:11;;;;;;;6.75;4.80;;;18.50;51.50;;;;;;5088441;28;20044;-72
2022/04/17 11:47:42;;;;;;;6.63;4.63;;;18.60;52.30;;;;;;5088298;28;20490;-73
2022/04/17 11:50:09;;;;;;;6.40;5.13;;;18.80;52.40;;;;;;5071738;28;20046;-72
2022/04/17 11:52:35;;;;;;;9.45;5.15;;;18.70;53.30;;;;;;5105226;28;20040;-73
2022/04/17 11:55:01;;;;;;;6.82;4.60;;;18.60;52.20;;;;;;5085331;28;20032;-73
2022/04/17 11:57:27;;;;;;;7.22;4.60;;;18.70;51.20;;;;;;5105220;28;20047;-73
2022/04/17 11:59:57;;;;;;;4.95;4.38;;;18.60;50.00;;;;;;5105865;28;20177;-73
2022/04/17 12:02:25;;;;;;;6.07;4.60;;;18.80;51.00;;;;;;5088273;28;20035;-72
2022/04/17 12:04:53;;;;;;;9.18;4.78;;;18.90;50.70;;;;;;5088130;28;20044;-73
2022/04/17 12:07:24;;;;;;;6.50;4.63;;;19.20;50.70;;;;;;5090094;28;20036;-73
2022/04/17 12:10:01;;;;;;;7.88;5.68;;;19.00;51.50;;;;;;5088241;28;20036;-73
2022/04/17 12:12:37;;;;;;;7.22;5.07;;;19.00;51.10;;;;;;5088464;28;20040;-73
2022/04/17 12:15:04;;;;;;;10.55;4.97;;;19.20;51.90;;;;;;5071893;28;20197;-73
2022/04/17 12:17:32;;;;;;;6.00;4.43;;;19.30;51.40;;;;;;5052007;28;20036;-73
2022/04/17 12:19:58;;;;;;;7.43;4.90;;;19.20;48.70;;;;;;5060735;28;20040;-72
2022/04/17 12:22:24;;;;;;;5.68;4.32;;;19.00;50.50;;;;;;5087969;28;20082;-73
2022/04/17 12:24:51;;;;;;;8.00;5.28;;;19.10;51.50;;;;;;5088430;28;20528;-73
2022/04/17 12:27:19;;;;;;;7.30;5.10;;;19.20;51.60;;;;;;5087827;28;20052;-73
2022/04/17 12:29:52;;;;;;;7.43;5.07;;;19.30;52.80;;;;;;5088412;28;20078;-73
2022/04/17 12:32:22;;;;;;;8.20;5.72;;;19.20;54.00;;;;;;5088003;28;20036;-72
2022/04/17 12:34:58;;;;;;;9.52;5.47;;;19.40;51.90;;;;;;5088345;28;20038;-73
2022/04/17 12:37:31;;;;;;;8.88;5.60;;;19.10;50.60;;;;;;5085964;28;20476;-73
2022/04/17 12:40:17;;;;;;;7.32;5.57;;;19.20;50.20;;;;;;5090240;28;20047;-73
2022/04/17 12:42:43;;;;;;;7.38;5.72;;;19.40;50.50;;;;;;5070874;28;20056;-72
2022/04/17 12:45:10;;;;;;;7.78;5.18;;;19.60;50.60;;;;;;5079300;28;20473;-73
2022/04/17 12:47:38;;;;;;;6.63;4.53;;;19.70;51.60;;;;;;5091108;28;20513;-73
2022/04/17 12:50:11;;;;;;;7.75;5.35;;;19.70;49.00;;;;;;5091866;28;20032;-73
2022/04/17 12:52:36;;;;;;;;;;;19.80;48.90;;;;;;5075548;28;20119;-73
2022/04/17 12:55:12;;;;;;;6.93;5.18;;;19.50;49.50;;;;;;5091659;28;20035;-73
2022/04/17 12:57:38;;;;;;;7.18;5.13;;;19.20;47.50;;;;;;5092202;28;20040;-72
2022/04/17 13:00:17;;;;;;;7.57;4.85;;;18.90;48.00;;;;;;5091483;28;20131;-73
2022/04/17 13:02:43;;;;;;;6.03;4.53;;;19.30;49.60;;;;;;5091643;28;20087;-73
2022/04/17 13:05:20;;;;;;;14.13;5.30;;;19.60;50.20;;;;;;5074281;28;20072;-73